createdAt,value
2023-04-25T00:00:38.476Z,81.20
2023-04-25T00:01:38.448Z,81.87
2023-04-25T00:02:43.779Z,80.54
2023-04-25T00:03:38.669Z,81.26
2023-04-25T00:04:38.768Z,81.98
2023-04-25T00:05:38.444Z,81.05
2023-04-25T00:06:38.420Z,80.85
2023-04-25T00:07:38.397Z,80.85
2023-04-25T00:08:38.374Z,81.98
2023-04-25T00:09:38.367Z,82.18
2023-04-25T00:10:38.353Z,81.87
2023-04-25T00:11:38.349Z,81.98
2023-04-25T00:12:38.341Z,81.87
2023-04-25T00:13:43.338Z,82.69
2023-04-25T00:14:38.309Z,81.98
2023-04-25T00:15:38.298Z,83.31
2023-04-25T00:16:38.405Z,82.18
2023-04-25T00:17:38.320Z,83.31
2023-04-25T00:18:38.276Z,83.10
2023-04-25T00:19:38.260Z,82.79
2023-04-25T00:20:38.249Z,83.14
2023-04-25T00:21:38.222Z,82.83
2023-04-25T00:22:38.214Z,82.69
2023-04-25T00:23:38.218Z,82.53
2023-04-25T00:24:43.208Z,82.63
2023-04-25T00:25:38.186Z,82.63
2023-04-25T00:26:38.170Z,82.39
2023-04-25T00:27:38.154Z,82.08
2023-04-25T00:28:38.162Z,82.22
2023-04-25T00:29:38.149Z,82.42
2023-04-25T00:30:38.131Z,81.98
2023-04-25T00:31:38.151Z,81.98
2023-04-25T00:32:38.139Z,82.39
2023-04-25T00:33:38.094Z,82.39
2023-04-25T00:34:38.079Z,82.01
2023-04-25T00:35:43.211Z,81.77
2023-04-25T00:36:38.059Z,81.05
2023-04-25T00:37:38.065Z,80.54
2023-04-25T00:38:38.027Z,80.64
2023-04-25T00:39:38.020Z,80.95
2023-04-25T00:40:38.012Z,80.99
2023-04-25T00:41:38.017Z,80.23
2023-04-25T00:42:37.985Z,80.03
2023-04-25T00:43:37.978Z,80.03
2023-04-25T00:44:37.980Z,80.54
2023-04-25T00:45:37.954Z,80.44
2023-04-25T00:46:43.009Z,80.03
2023-04-25T00:47:37.963Z,81.15
2023-04-25T00:48:37.914Z,81.15
2023-04-25T00:49:37.910Z,80.19
2023-04-25T00:50:37.890Z,80.85
2023-04-25T00:51:37.891Z,79.58
2023-04-25T00:52:37.876Z,79.99
2023-04-25T00:53:37.867Z,79.79
2023-04-25T00:54:37.846Z,79.72
2023-04-25T00:55:37.838Z,80.13
2023-04-25T00:56:37.835Z,80.44
2023-04-25T00:57:42.850Z,80.64
2023-04-25T00:58:37.829Z,80.74
2023-04-25T00:59:37.807Z,80.81
2023-04-25T01:00:37.846Z,80.30
2023-04-25T01:01:37.820Z,79.99
2023-04-25T01:02:37.843Z,79.00
2023-04-25T01:03:37.870Z,80.09
2023-04-25T01:04:37.733Z,80.09
2023-04-25T01:05:37.743Z,80.13
2023-04-25T01:06:37.721Z,78.76
2023-04-25T01:07:37.701Z,79.17
2023-04-25T01:08:42.722Z,79.00
2023-04-25T01:09:37.681Z,79.27
2023-04-25T01:10:37.678Z,79.58
2023-04-25T01:11:37.673Z,79.48
2023-04-25T01:12:37.654Z,79.89
2023-04-25T01:13:37.643Z,79.99
2023-04-25T01:14:37.624Z,79.99
2023-04-25T01:15:37.616Z,79.17
2023-04-25T01:16:37.684Z,79.27
2023-04-25T01:17:37.674Z,80.23
2023-04-25T01:18:37.578Z,80.19
2023-04-25T01:19:42.599Z,79.72
2023-04-25T01:20:37.569Z,80.09
2023-04-25T01:21:37.541Z,79.89
2023-04-25T01:22:37.533Z,79.89
2023-04-25T01:23:37.549Z,79.48
2023-04-25T01:24:37.517Z,79.79
2023-04-25T01:25:37.500Z,79.79
2023-04-25T01:26:37.530Z,79.58
2023-04-25T01:27:37.475Z,79.48
2023-04-25T01:28:37.471Z,80.09
2023-04-25T01:29:37.488Z,80.03
2023-04-25T01:30:42.479Z,80.19
2023-04-25T01:31:37.475Z,80.71
2023-04-25T01:32:37.468Z,80.81
2023-04-25T01:33:37.409Z,80.09
2023-04-25T01:34:37.397Z,79.89
2023-04-25T01:35:37.403Z,79.99
2023-04-25T01:36:37.380Z,79.99
2023-04-25T01:37:37.362Z,80.13
2023-04-25T01:38:37.349Z,80.09
2023-04-25T01:39:37.348Z,79.48
2023-04-25T01:40:37.344Z,78.97
2023-04-25T01:41:42.364Z,80.51
2023-04-25T01:42:37.304Z,80.71
2023-04-25T01:43:37.294Z,80.91
2023-04-25T01:44:37.282Z,80.81
2023-04-25T01:45:37.275Z,81.67
2023-04-25T01:46:37.330Z,80.74
2023-04-25T01:47:37.291Z,80.60
2023-04-25T01:48:37.362Z,82.28
2023-04-25T01:49:37.235Z,82.59
2023-04-25T01:50:37.226Z,82.90
2023-04-25T01:51:37.207Z,82.49
2023-04-25T01:52:42.214Z,84.03
2023-04-25T01:53:37.205Z,83.72
2023-04-25T01:54:37.169Z,83.82
2023-04-25T01:55:37.169Z,85.25
2023-04-25T01:56:37.162Z,84.47
2023-04-25T01:57:37.141Z,85.71
2023-04-25T01:58:37.123Z,85.80
2023-04-25T01:59:37.136Z,85.91
2023-04-25T02:00:37.129Z,85.95
2023-04-25T02:01:37.166Z,86.57
2023-04-25T02:02:37.156Z,87.08
2023-04-25T02:03:42.319Z,87.79
2023-04-25T02:04:37.179Z,87.70
2023-04-25T02:05:37.075Z,87.70
2023-04-25T02:06:37.052Z,88.21
2023-04-25T02:07:37.031Z,88.92
2023-04-25T02:08:37.017Z,88.31
2023-04-25T02:09:37.003Z,89.23
2023-04-25T02:10:36.989Z,89.78
2023-04-25T02:11:37.048Z,89.84
2023-04-25T02:12:36.978Z,89.84
2023-04-25T02:13:36.956Z,90.16
2023-04-25T02:14:41.968Z,89.43
2023-04-25T02:15:36.954Z,89.78
2023-04-25T02:16:37.048Z,90.09
2023-04-25T02:17:36.946Z,89.69
2023-04-25T02:18:36.907Z,90.20
2023-04-25T02:19:36.913Z,90.61
2023-04-25T02:20:36.882Z,90.71
2023-04-25T02:21:36.949Z,90.61
2023-04-25T02:22:36.863Z,90.40
2023-04-25T02:23:36.870Z,90.30
2023-04-25T02:24:36.836Z,90.85
2023-04-25T02:25:41.854Z,91.27
2023-04-25T02:26:36.825Z,90.81
2023-04-25T02:27:36.804Z,91.74
2023-04-25T02:28:36.860Z,91.42
2023-04-25T02:29:36.802Z,91.84
2023-04-25T02:30:36.782Z,92.04
2023-04-25T02:31:36.806Z,91.94
2023-04-25T02:32:36.813Z,91.84
2023-04-25T02:33:36.739Z,91.37
2023-04-25T02:34:36.721Z,91.84
2023-04-25T02:35:36.760Z,92.04
2023-04-25T02:36:41.744Z,92.76
2023-04-25T02:37:36.687Z,93.17
2023-04-25T02:38:36.675Z,92.46
2023-04-25T02:39:36.662Z,92.25
2023-04-25T02:40:36.677Z,92.35
2023-04-25T02:41:36.681Z,92.91
2023-04-25T02:42:36.632Z,92.86
2023-04-25T02:43:36.619Z,92.86
2023-04-25T02:44:36.613Z,92.76
2023-04-25T02:45:36.598Z,92.46
2023-04-25T02:46:39.384Z,92.80
2023-04-25T02:47:41.696Z,93.38
2023-04-25T02:48:36.565Z,92.25
2023-04-25T02:49:36.552Z,93.12
2023-04-25T02:50:36.565Z,92.86
2023-04-25T02:51:36.592Z,93.38
2023-04-25T02:52:36.518Z,93.38
2023-04-25T02:53:36.530Z,93.38
2023-04-25T02:54:36.493Z,93.48
2023-04-25T02:55:36.486Z,93.17
2023-04-25T02:56:36.488Z,93.48
2023-04-25T02:57:36.475Z,93.68
2023-04-25T02:58:41.468Z,94.20
2023-04-25T02:59:36.451Z,93.89
2023-04-25T03:00:36.453Z,93.99
2023-04-25T03:01:36.414Z,93.79
2023-04-25T03:02:36.486Z,93.59
2023-04-25T03:03:36.418Z,93.79
2023-04-25T03:04:36.434Z,93.27
2023-04-25T03:05:36.398Z,93.79
2023-04-25T03:06:36.365Z,93.38
2023-04-25T03:07:36.370Z,94.40
2023-04-25T03:08:36.337Z,93.99
2023-04-25T03:09:41.346Z,93.99
2023-04-25T03:10:36.307Z,94.10
2023-04-25T03:11:36.338Z,93.99
2023-04-25T03:12:36.287Z,93.79
2023-04-25T03:13:36.287Z,94.10
2023-04-25T03:14:36.269Z,94.51
2023-04-25T03:15:36.260Z,94.20
2023-04-25T03:16:36.302Z,94.71
2023-04-25T03:17:36.261Z,94.61
2023-04-25T03:18:36.218Z,94.61
2023-04-25T03:19:36.209Z,94.76
2023-04-25T03:20:41.219Z,94.20
2023-04-25T03:21:36.194Z,93.83
2023-04-25T03:22:36.192Z,93.99
2023-04-25T03:23:36.192Z,94.34
2023-04-25T03:24:36.161Z,94.14
2023-04-25T03:25:36.142Z,93.99
2023-04-25T03:26:36.139Z,93.79
2023-04-25T03:27:36.119Z,94.14
2023-04-25T03:28:36.107Z,93.93
2023-04-25T03:29:36.120Z,93.73
2023-04-25T03:30:36.088Z,93.52
2023-04-25T03:31:41.130Z,93.59
2023-04-25T03:32:36.095Z,94.14
2023-04-25T03:33:36.070Z,94.14
2023-04-25T03:34:36.039Z,93.63
2023-04-25T03:35:36.041Z,94.14
2023-04-25T03:36:36.028Z,93.83
2023-04-25T03:37:36.007Z,93.42
2023-04-25T03:38:36.026Z,93.63
2023-04-25T03:39:36.029Z,93.68
2023-04-25T03:40:35.994Z,94.04
2023-04-25T03:41:35.983Z,93.99
2023-04-25T03:42:42.156Z,93.99
2023-04-25T03:43:35.941Z,93.83
2023-04-25T03:44:35.922Z,93.89
2023-04-25T03:45:35.938Z,93.73
2023-04-25T03:46:35.911Z,93.48
2023-04-25T03:47:35.953Z,93.73
2023-04-25T03:48:35.903Z,94.04
2023-04-25T03:49:35.871Z,94.45
2023-04-25T03:50:35.864Z,94.76
2023-04-25T03:51:35.855Z,94.45
2023-04-25T03:52:35.856Z,94.65
2023-04-25T03:53:40.898Z,94.14
2023-04-25T03:54:35.813Z,94.04
2023-04-25T03:55:35.822Z,93.63
2023-04-25T03:56:35.812Z,93.52
2023-04-25T03:57:35.802Z,93.73
2023-04-25T03:58:35.780Z,93.52
2023-04-25T03:59:35.772Z,94.10
2023-04-25T04:00:35.745Z,94.20
2023-04-25T04:01:35.735Z,94.30
2023-04-25T04:02:35.941Z,94.20
2023-04-25T04:03:35.857Z,94.20
2023-04-25T04:04:41.163Z,93.99
2023-04-25T04:05:35.821Z,94.45
2023-04-25T04:06:35.678Z,93.89
2023-04-25T04:07:35.676Z,94.10
2023-04-25T04:08:35.661Z,93.79
2023-04-25T04:09:35.641Z,93.99
2023-04-25T04:10:35.629Z,94.10
2023-04-25T04:11:35.658Z,94.10
2023-04-25T04:12:35.623Z,94.51
2023-04-25T04:13:35.607Z,94.71
2023-04-25T04:14:35.590Z,94.10
2023-04-25T04:15:40.663Z,93.99
2023-04-25T04:16:35.575Z,94.10
2023-04-25T04:17:35.676Z,93.99
2023-04-25T04:18:35.542Z,93.93
2023-04-25T04:19:35.529Z,93.48
2023-04-25T04:20:35.518Z,93.73
2023-04-25T04:21:35.506Z,93.63
2023-04-25T04:22:35.506Z,93.38
2023-04-25T04:23:36.192Z,93.79
2023-04-25T04:24:35.479Z,94.10
2023-04-25T04:25:35.459Z,94.10
2023-04-25T04:26:40.494Z,93.48
2023-04-25T04:27:35.483Z,93.38
2023-04-25T04:28:35.436Z,93.52
2023-04-25T04:29:35.443Z,93.42
2023-04-25T04:30:35.405Z,93.42
2023-04-25T04:31:35.498Z,93.52
2023-04-25T04:32:35.459Z,93.27
2023-04-25T04:33:35.374Z,92.76
2023-04-25T04:34:35.378Z,93.01
2023-04-25T04:35:35.371Z,92.91
2023-04-25T04:36:35.357Z,92.86
2023-04-25T04:37:40.353Z,93.12
2023-04-25T04:38:35.312Z,93.17
2023-04-25T04:39:35.308Z,93.48
2023-04-25T04:40:35.303Z,92.25
2023-04-25T04:41:35.321Z,92.25
2023-04-25T04:42:35.290Z,92.35
2023-04-25T04:43:35.275Z,93.07
2023-04-25T04:44:35.254Z,93.38
2023-04-25T04:45:35.238Z,93.38
2023-04-25T04:46:35.310Z,93.27
2023-04-25T04:47:35.275Z,93.07
2023-04-25T04:48:40.225Z,93.17
2023-04-25T04:49:35.191Z,93.07
2023-04-25T04:50:35.185Z,92.66
2023-04-25T04:51:35.172Z,92.25
2023-04-25T04:52:35.168Z,91.99
2023-04-25T04:53:35.167Z,91.88
2023-04-25T04:54:35.142Z,91.99
2023-04-25T04:55:35.130Z,91.94
2023-04-25T04:56:35.111Z,92.35
2023-04-25T04:57:35.109Z,92.35
2023-04-25T04:58:35.111Z,92.25
2023-04-25T04:59:40.124Z,91.84
2023-04-25T05:00:35.103Z,92.14
2023-04-25T05:01:35.057Z,92.14
2023-04-25T05:02:35.260Z,92.35
2023-04-25T05:03:35.118Z,92.46
2023-04-25T05:04:35.150Z,92.14
2023-04-25T05:05:35.015Z,92.25
2023-04-25T05:06:35.004Z,92.04
2023-04-25T05:07:35.034Z,92.35
2023-04-25T05:08:34.976Z,92.04
2023-04-25T05:09:34.962Z,91.94
2023-04-25T05:10:39.982Z,92.35
2023-04-25T05:11:34.970Z,92.04
2023-04-25T05:12:36.443Z,91.84
2023-04-25T05:13:34.960Z,92.04
2023-04-25T05:14:34.965Z,92.25
2023-04-25T05:15:34.897Z,92.82
2023-04-25T05:16:34.967Z,93.27
2023-04-25T05:17:34.965Z,92.35
2023-04-25T05:18:34.944Z,91.94
2023-04-25T05:19:34.888Z,91.90
2023-04-25T05:20:34.885Z,91.74
2023-04-25T05:21:39.866Z,92.04
2023-04-25T05:22:34.842Z,91.94
2023-04-25T05:23:34.803Z,91.53
2023-04-25T05:24:34.808Z,91.53
2023-04-25T05:25:34.798Z,91.53
2023-04-25T05:26:34.777Z,90.91
2023-04-25T05:27:34.768Z,90.91
2023-04-25T05:28:34.769Z,91.22
2023-04-25T05:29:34.748Z,91.12
2023-04-25T05:30:34.748Z,90.81
2023-04-25T05:31:34.729Z,90.81
2023-04-25T05:32:39.745Z,90.71
2023-04-25T05:33:34.692Z,90.30
2023-04-25T05:34:34.700Z,90.40
2023-04-25T05:35:34.718Z,89.58
2023-04-25T05:36:34.674Z,90.40
2023-04-25T05:37:34.658Z,90.61
2023-04-25T05:38:35.214Z,89.95
2023-04-25T05:39:34.628Z,90.26
2023-04-25T05:40:34.627Z,90.05
2023-04-25T05:41:34.597Z,90.09
2023-04-25T05:42:34.597Z,89.84
2023-04-25T05:43:39.599Z,90.26
2023-04-25T05:44:34.570Z,90.56
2023-04-25T05:45:34.572Z,89.43
2023-04-25T05:46:34.679Z,89.84
2023-04-25T05:47:34.590Z,89.95
2023-04-25T05:48:34.531Z,90.05
2023-04-25T05:49:34.504Z,89.84
2023-04-25T05:50:34.494Z,89.54
2023-04-25T05:51:34.488Z,89.43
2023-04-25T05:52:34.487Z,88.88
2023-04-25T05:53:34.459Z,89.60
2023-04-25T05:54:39.470Z,89.19
2023-04-25T05:55:34.436Z,88.98
2023-04-25T05:56:34.424Z,88.57
2023-04-25T05:57:34.423Z,89.23
2023-04-25T05:58:34.416Z,88.51
2023-04-25T05:59:34.390Z,88.78
2023-04-25T06:00:34.378Z,88.51
2023-04-25T06:01:34.370Z,88.21
2023-04-25T06:02:34.477Z,88.31
2023-04-25T06:03:34.544Z,88.82
2023-04-25T06:04:34.641Z,88.41
2023-04-25T06:05:39.427Z,88.51
2023-04-25T06:06:34.318Z,89.23
2023-04-25T06:07:34.305Z,88.41
2023-04-25T06:08:34.308Z,88.21
2023-04-25T06:09:34.287Z,88.31
2023-04-25T06:10:34.283Z,88.72
2023-04-25T06:11:34.254Z,88.31
2023-04-25T06:12:34.253Z,88.10
2023-04-25T06:13:34.238Z,88.21
2023-04-25T06:14:34.248Z,88.82
2023-04-25T06:15:34.207Z,88.62
2023-04-25T06:16:39.240Z,87.59
2023-04-25T06:17:34.217Z,87.28
2023-04-25T06:18:34.251Z,87.08
2023-04-25T06:19:34.164Z,87.70
2023-04-25T06:20:34.158Z,87.49
2023-04-25T06:21:34.148Z,86.77
2023-04-25T06:22:34.147Z,86.05
2023-04-25T06:23:34.125Z,86.57
2023-04-25T06:24:34.127Z,86.77
2023-04-25T06:25:34.101Z,86.66
2023-04-25T06:26:34.081Z,86.46
2023-04-25T06:27:39.094Z,86.77
2023-04-25T06:28:34.094Z,86.77
2023-04-25T06:29:34.058Z,87.08
2023-04-25T06:30:34.044Z,87.18
2023-04-25T06:31:34.068Z,87.18
2023-04-25T06:32:34.043Z,87.49
2023-04-25T06:33:34.013Z,87.79
2023-04-25T06:34:34.026Z,87.28
2023-04-25T06:35:33.984Z,87.18
2023-04-25T06:36:33.969Z,86.98
2023-04-25T06:37:33.963Z,86.66
2023-04-25T06:38:38.981Z,85.58
2023-04-25T06:39:33.934Z,84.45
2023-04-25T06:40:33.948Z,84.25
2023-04-25T06:41:33.925Z,82.91
2023-04-25T06:42:33.906Z,82.50
2023-04-25T06:43:33.975Z,81.48
2023-04-25T06:44:33.884Z,80.96
2023-04-25T06:45:33.879Z,81.27
2023-04-25T06:46:33.938Z,79.52
2023-04-25T06:47:33.888Z,79.52
2023-04-25T06:48:33.843Z,80.04
2023-04-25T06:49:38.875Z,79.73
2023-04-25T06:50:33.817Z,79.63
2023-04-25T06:51:33.828Z,79.73
2023-04-25T06:52:33.794Z,80.55
2023-04-25T06:53:33.790Z,80.45
2023-04-25T06:54:33.768Z,80.24
2023-04-25T06:55:33.755Z,80.96
2023-04-25T06:56:33.761Z,80.86
2023-04-25T06:57:33.753Z,81.16
2023-04-25T06:58:33.730Z,81.06
2023-04-25T06:59:33.719Z,81.48
2023-04-25T07:00:38.757Z,82.19
2023-04-25T07:01:33.692Z,82.56
2023-04-25T07:02:33.797Z,82.70
2023-04-25T07:03:33.757Z,82.60
2023-04-25T07:04:33.984Z,83.01
2023-04-25T07:05:33.674Z,82.97
2023-04-25T07:06:33.636Z,83.90
2023-04-25T07:07:33.632Z,83.90
2023-04-25T07:08:33.612Z,84.10
2023-04-25T07:09:33.609Z,84.25
2023-04-25T07:10:33.593Z,83.83
2023-04-25T07:11:38.614Z,83.69
2023-04-25T07:12:33.567Z,84.34
2023-04-25T07:13:33.573Z,84.10
2023-04-25T07:14:33.551Z,82.60
2023-04-25T07:15:33.567Z,82.91
2023-04-25T07:16:33.569Z,82.60
2023-04-25T07:17:33.527Z,83.73
2023-04-25T07:18:33.509Z,83.63
2023-04-25T07:19:33.489Z,83.83
2023-04-25T07:20:33.480Z,83.01
2023-04-25T07:21:33.505Z,83.22
2023-04-25T07:22:38.485Z,82.70
2023-04-25T07:23:33.458Z,82.70
2023-04-25T07:24:33.450Z,83.73
2023-04-25T07:25:33.426Z,81.99
2023-04-25T07:26:33.426Z,81.78
2023-04-25T07:27:33.414Z,81.78
2023-04-25T07:28:33.397Z,82.60
2023-04-25T07:29:33.376Z,80.76
2023-04-25T07:30:33.371Z,81.16
2023-04-25T07:31:33.402Z,81.68
2023-04-25T07:32:33.354Z,81.16
2023-04-25T07:33:38.372Z,81.06
2023-04-25T07:34:33.319Z,80.55
2023-04-25T07:35:33.311Z,80.04
2023-04-25T07:36:33.303Z,80.07
2023-04-25T07:37:33.307Z,80.28
2023-04-25T07:38:33.290Z,80.28
2023-04-25T07:39:33.279Z,81.20
2023-04-25T07:40:33.252Z,81.00
2023-04-25T07:41:33.238Z,81.51
2023-04-25T07:42:33.227Z,82.43
2023-04-25T07:43:33.231Z,82.64
2023-04-25T07:44:38.226Z,80.69
2023-04-25T07:45:33.275Z,81.00
2023-04-25T07:46:33.269Z,79.42
2023-04-25T07:47:33.228Z,80.28
2023-04-25T07:48:33.158Z,79.05
2023-04-25T07:49:33.154Z,78.64
2023-04-25T07:50:33.138Z,78.94
2023-04-25T07:51:33.141Z,79.93
2023-04-25T07:52:33.117Z,78.91
2023-04-25T07:53:33.180Z,78.70
2023-04-25T07:54:33.103Z,77.98
2023-04-25T07:55:38.104Z,78.29
2023-04-25T07:56:45.160Z,77.95
2023-04-25T07:57:33.064Z,77.03
2023-04-25T07:58:33.062Z,75.49
2023-04-25T07:59:33.033Z,76.00
2023-04-25T08:00:33.026Z,76.31
2023-04-25T08:01:33.011Z,75.79
2023-04-25T08:02:33.074Z,75.90
2023-04-25T08:03:33.107Z,76.10
2023-04-25T08:04:33.310Z,77.33
2023-04-25T08:05:33.172Z,75.90
2023-04-25T08:06:38.100Z,75.49
2023-04-25T08:07:32.945Z,75.28
2023-04-25T08:08:32.943Z,75.18
2023-04-25T08:09:32.943Z,75.28
2023-04-25T08:10:32.908Z,75.79
2023-04-25T08:11:32.906Z,76.10
2023-04-25T08:12:32.887Z,75.76
2023-04-25T08:13:32.888Z,75.45
2023-04-25T08:14:32.863Z,75.35
2023-04-25T08:15:32.948Z,74.63
2023-04-25T08:16:32.936Z,75.04
2023-04-25T08:17:37.897Z,75.04
2023-04-25T08:18:32.832Z,74.39
2023-04-25T08:19:32.813Z,74.15
2023-04-25T08:20:32.802Z,73.16
2023-04-25T08:21:32.796Z,74.49
2023-04-25T08:22:32.776Z,73.74
2023-04-25T08:23:32.775Z,73.03
2023-04-25T08:24:32.761Z,73.03
2023-04-25T08:25:32.763Z,73.64
2023-04-25T08:26:32.736Z,72.69
2023-04-25T08:27:32.730Z,72.58
2023-04-25T08:28:37.737Z,71.42
2023-04-25T08:29:32.700Z,70.91
2023-04-25T08:30:32.692Z,71.12
2023-04-25T08:31:32.723Z,71.45
2023-04-25T08:32:32.662Z,70.84
2023-04-25T08:33:32.671Z,70.84
2023-04-25T08:34:32.646Z,70.94
2023-04-25T08:35:32.629Z,71.53
2023-04-25T08:36:39.391Z,71.32
2023-04-25T08:37:32.614Z,72.24
2023-04-25T08:38:32.608Z,72.82
2023-04-25T08:39:37.627Z,72.21
2023-04-25T08:40:32.589Z,70.78
2023-04-25T08:41:32.623Z,72.17
2023-04-25T08:42:32.555Z,71.12
2023-04-25T08:43:32.551Z,70.92
2023-04-25T08:44:32.727Z,70.88
2023-04-25T08:45:32.525Z,70.17
2023-04-25T08:46:32.570Z,70.88
2023-04-25T08:47:32.505Z,70.14
2023-04-25T08:48:32.487Z,69.42
2023-04-25T08:49:32.477Z,68.33
2023-04-25T08:50:37.478Z,68.23
2023-04-25T08:51:32.453Z,66.90
2023-04-25T08:52:32.436Z,66.80
2023-04-25T08:53:33.890Z,65.06
2023-04-25T08:54:34.342Z,66.39
2023-04-25T08:55:32.407Z,65.64
2023-04-25T08:56:32.388Z,65.13
2023-04-25T08:57:32.398Z,64.22
2023-04-25T08:58:32.378Z,63.83
2023-04-25T08:59:32.365Z,63.90
2023-04-25T09:00:32.596Z,65.23
2023-04-25T09:01:37.490Z,65.44
2023-04-25T09:02:32.448Z,64.11
2023-04-25T09:03:32.424Z,63.81
2023-04-25T09:04:32.307Z,64.52
2023-04-25T09:05:32.292Z,63.49
2023-04-25T09:06:32.279Z,64.11
2023-04-25T09:07:32.260Z,63.70
2023-04-25T09:08:32.248Z,64.01
2023-04-25T09:09:32.304Z,65.13
2023-04-25T09:11:32.214Z,63.40
2023-04-25T09:12:37.305Z,63.49
2023-04-25T09:13:32.224Z,64.42
2023-04-25T09:14:32.188Z,64.22
2023-04-25T09:15:32.172Z,63.70
2023-04-25T09:16:33.653Z,63.40
2023-04-25T09:17:32.184Z,63.29
2023-04-25T09:18:32.138Z,63.60
2023-04-25T09:19:40.206Z,64.18
2023-04-25T09:20:35.236Z,64.90
2023-04-25T09:21:32.107Z,63.47
2023-04-25T09:22:32.089Z,65.00
2023-04-25T09:23:37.099Z,64.18
2023-04-25T09:24:32.080Z,63.87
2023-04-25T09:25:32.059Z,63.90
2023-04-25T09:26:32.042Z,63.78
2023-04-25T09:27:32.040Z,64.08
2023-04-25T09:28:32.043Z,64.08
2023-04-25T09:29:32.016Z,64.01
2023-04-25T09:30:32.013Z,63.57
2023-04-25T09:31:32.028Z,65.03
2023-04-25T09:32:32.033Z,64.93
2023-04-25T09:33:31.968Z,66.49
2023-04-25T09:34:36.987Z,66.66
2023-04-25T09:35:31.948Z,65.10
2023-04-25T09:36:31.926Z,64.28
2023-04-25T09:37:31.924Z,64.18
2023-04-25T09:38:31.916Z,63.44
2023-04-25T09:39:31.897Z,63.54
2023-04-25T09:40:31.900Z,63.37
2023-04-25T09:41:31.877Z,62.55
2023-04-25T09:42:31.859Z,63.47
2023-04-25T09:43:31.851Z,63.26
2023-04-25T09:44:31.966Z,62.14
2023-04-25T09:45:36.858Z,62.07
2023-04-25T09:46:31.853Z,63.37
2023-04-25T09:47:31.881Z,63.47
2023-04-25T09:48:31.809Z,63.09
2023-04-25T09:49:31.790Z,63.47
2023-04-25T09:50:31.835Z,62.96
2023-04-25T09:51:31.764Z,62.55
2023-04-25T09:52:31.753Z,63.37
2023-04-25T09:53:31.753Z,63.47
2023-04-25T09:54:31.733Z,64.01
2023-04-25T09:55:31.735Z,64.22
2023-04-25T09:56:36.720Z,65.54
2023-04-25T09:57:31.691Z,64.79
2023-04-25T09:58:33.220Z,64.69
2023-04-25T09:59:31.687Z,64.76
2023-04-25T10:00:31.714Z,64.76
2023-04-25T10:01:31.771Z,64.73
2023-04-25T10:02:31.711Z,64.22
2023-04-25T10:03:31.876Z,62.49
2023-04-25T10:04:33.865Z,62.43
2023-04-25T10:05:31.613Z,61.41
2023-04-25T10:06:31.602Z,60.50
2023-04-25T10:07:36.601Z,59.96
2023-04-25T10:08:31.564Z,59.68
2023-04-25T10:09:31.559Z,61.00
2023-04-25T10:10:32.305Z,60.09
2023-04-25T10:11:31.540Z,60.39
2023-04-25T10:12:31.522Z,59.25
2023-04-25T10:13:31.513Z,59.83
2023-04-25T10:14:31.497Z,60.06
2023-04-25T10:15:31.551Z,58.97
2023-04-25T10:16:31.709Z,60.19
2023-04-25T10:17:31.522Z,59.86
2023-04-25T10:18:36.473Z,59.96
2023-04-25T10:19:31.446Z,60.95
2023-04-25T10:20:31.434Z,59.73
2023-04-25T10:21:31.428Z,60.27
2023-04-25T10:22:31.410Z,59.86
2023-04-25T10:23:31.400Z,59.25
2023-04-25T10:24:31.383Z,60.57
2023-04-25T10:25:31.373Z,60.60
2023-04-25T10:26:31.416Z,60.50
2023-04-25T10:27:31.365Z,60.09
2023-04-25T10:28:31.336Z,60.02
2023-04-25T10:29:36.358Z,60.22
2023-04-25T10:30:31.314Z,61.37
2023-04-25T10:31:31.369Z,61.27
2023-04-25T10:32:31.400Z,61.07
2023-04-25T10:33:31.285Z,61.09
2023-04-25T10:34:31.269Z,62.01
2023-04-25T10:35:31.257Z,62.85
2023-04-25T10:36:31.244Z,62.14
2023-04-25T10:37:31.251Z,61.53
2023-04-25T10:38:31.246Z,61.83
2023-04-25T10:39:31.233Z,62.32
2023-04-25T10:40:36.222Z,62.55
2023-04-25T10:41:31.190Z,62.21
2023-04-25T10:42:31.211Z,62.73
2023-04-25T10:43:31.166Z,61.37
2023-04-25T10:44:31.186Z,61.47
2023-04-25T10:45:31.153Z,60.73
2023-04-25T10:46:31.163Z,60.50
2023-04-25T10:47:31.157Z,59.68
2023-04-25T10:48:31.129Z,58.97
2023-04-25T10:49:31.102Z,59.68
2023-04-25T10:50:31.092Z,58.76
2023-04-25T10:51:47.305Z,58.26
2023-04-25T10:52:32.085Z,58.26
2023-04-25T10:53:31.052Z,57.75
2023-04-25T10:54:31.042Z,58.05
2023-04-25T10:55:31.032Z,58.28
2023-04-25T10:56:31.033Z,58.89
2023-04-25T10:57:31.025Z,60.76
2023-04-25T10:58:30.996Z,59.74
2023-04-25T10:59:30.991Z,60.05
2023-04-25T11:00:42.974Z,59.84
2023-04-25T11:01:30.992Z,59.43
2023-04-25T11:02:36.085Z,59.94
2023-04-25T11:03:31.013Z,59.74
2023-04-25T11:04:31.480Z,59.43
2023-04-25T11:05:30.919Z,59.94
2023-04-25T11:06:30.918Z,59.64
2023-04-25T11:07:30.906Z,59.23
2023-04-25T11:08:30.883Z,59.74
2023-04-25T11:09:30.876Z,59.74
2023-04-25T11:10:30.868Z,59.53
2023-04-25T11:11:30.871Z,58.82
2023-04-25T11:12:30.853Z,58.82
2023-04-25T11:13:35.870Z,58.51
2023-04-25T11:14:30.815Z,58.41
2023-04-25T11:15:30.828Z,59.64
2023-04-25T11:16:30.814Z,59.74
2023-04-25T11:17:30.885Z,58.75
2023-04-25T11:18:30.823Z,59.16
2023-04-25T11:19:30.771Z,58.75
2023-04-25T11:20:30.878Z,59.18
2023-04-25T11:21:30.742Z,60.03
2023-04-25T11:22:30.732Z,59.80
2023-04-25T11:23:30.731Z,59.59
2023-04-25T11:24:35.865Z,59.46
2023-04-25T11:25:30.692Z,60.10
2023-04-25T11:26:30.683Z,60.28
2023-04-25T11:27:30.692Z,59.97
2023-04-25T11:28:30.661Z,60.96
2023-04-25T11:29:30.654Z,60.76
2023-04-25T11:30:30.659Z,59.84
2023-04-25T11:31:30.671Z,59.74
2023-04-25T11:32:30.664Z,59.81
2023-04-25T11:33:30.614Z,59.58
2023-04-25T11:34:30.594Z,58.05
2023-04-25T11:35:35.687Z,58.05
2023-04-25T11:36:30.595Z,57.92
2023-04-25T11:37:30.560Z,58.03
2023-04-25T11:38:30.558Z,58.00
2023-04-25T11:39:30.541Z,57.49
2023-04-25T11:40:30.532Z,58.00
2023-04-25T11:41:30.517Z,57.82
2023-04-25T11:42:30.503Z,57.49
2023-04-25T11:43:30.794Z,58.64
2023-04-25T11:44:30.533Z,58.84
2023-04-25T11:45:30.471Z,57.75
2023-04-25T11:46:35.676Z,58.15
2023-04-25T11:47:30.559Z,58.05
2023-04-25T11:48:30.449Z,58.97
2023-04-25T11:49:30.463Z,59.00
2023-04-25T11:50:30.413Z,59.51
2023-04-25T11:51:30.427Z,59.10
2023-04-25T11:52:30.460Z,59.20
2023-04-25T11:53:30.389Z,59.51
2023-04-25T11:54:30.414Z,59.30
2023-04-25T11:55:30.361Z,59.41
2023-04-25T11:56:30.373Z,59.71
2023-04-25T11:57:35.367Z,59.20
2023-04-25T11:58:30.398Z,59.28
2023-04-25T11:59:30.319Z,58.80
2023-04-25T12:00:30.298Z,57.98
2023-04-25T12:01:31.811Z,57.85
2023-04-25T12:02:30.382Z,58.39
2023-04-25T12:03:30.516Z,58.69
2023-04-25T12:04:30.485Z,58.39
2023-04-25T12:05:32.724Z,59.12
2023-04-25T12:06:30.277Z,59.74
2023-04-25T12:07:30.241Z,58.11
2023-04-25T12:08:35.250Z,58.01
2023-04-25T12:09:30.216Z,57.78
2023-04-25T12:10:30.261Z,57.98
2023-04-25T12:11:30.178Z,56.45
2023-04-25T12:12:30.164Z,57.17
2023-04-25T12:13:30.165Z,56.45
2023-04-25T12:14:30.139Z,55.84
2023-04-25T12:15:30.136Z,56.58
2023-04-25T12:16:30.227Z,56.96
2023-04-25T12:17:30.172Z,56.96
2023-04-25T12:18:30.108Z,56.96
2023-04-25T12:19:35.116Z,56.35
2023-04-25T12:20:30.082Z,56.45
2023-04-25T12:21:30.068Z,56.24
2023-04-25T12:22:30.151Z,56.24
2023-04-25T12:23:30.069Z,57.06
2023-04-25T12:24:30.039Z,57.17
2023-04-25T12:25:30.024Z,56.15
2023-04-25T12:26:30.013Z,56.76
2023-04-25T12:27:30.001Z,56.45
2023-04-25T12:28:30.109Z,56.55
2023-04-25T12:29:38.189Z,56.42
2023-04-25T12:30:35.990Z,56.12
2023-04-25T12:31:30.040Z,55.20
2023-04-25T12:32:30.000Z,56.83
2023-04-25T12:33:29.952Z,56.35
2023-04-25T12:34:30.000Z,56.65
2023-04-25T12:35:29.908Z,56.15
2023-04-25T12:36:29.900Z,56.76
2023-04-25T12:37:29.904Z,56.15
2023-04-25T12:38:29.899Z,57.24
2023-04-25T12:39:29.897Z,56.85
2023-04-25T12:40:29.931Z,56.55
2023-04-25T12:41:34.870Z,57.19
2023-04-25T12:42:29.832Z,57.29
2023-04-25T12:43:29.821Z,56.58
2023-04-25T12:44:29.846Z,56.68
2023-04-25T12:45:29.796Z,57.80
2023-04-25T12:46:29.914Z,57.42
2023-04-25T12:47:29.823Z,58.23
2023-04-25T12:48:29.774Z,57.83
2023-04-25T12:49:29.759Z,57.93
2023-04-25T12:50:29.741Z,57.73
2023-04-25T12:51:29.743Z,57.90
2023-04-25T12:52:34.806Z,58.92
2023-04-25T12:53:29.721Z,57.98